Time;durP1;ratioP1;P1;durP2;ratioP2;P2;SDS_P1;SDS_P2;PMS_P1;PMS_P2;Temp;Humidity;BMP_temperature;BMP_pressure;BME280_temperature;BME280_humidity;BME280_pressure;Samples;Min_cycle;Max_cycle;Signal;HPM_P1;HPM_P2
2021/11/12 00:13:18;;;;;;;46.90;21.75;;;4.20;99.90;;;;;;5073542;28;20048;-65
2021/11/12 00:15:51;;;;;;;41.55;20.48;;;4.20;99.90;;;;;;5055390;28;20032;-65
2021/11/12 00:18:19;;;;;;;58.30;23.20;;;4.30;99.90;;;;;;5056060;28;20039;-65
2021/11/12 00:20:46;;;;;;;56.83;23.17;;;4.30;99.90;;;;;;5074026;28;20063;-65
2021/11/12 00:23:12;;;;;;;49.22;23.05;;;4.20;99.90;;;;;;5073271;28;20474;-65
2021/11/12 00:25:40;;;;;;;46.40;21.30;;;4.20;99.90;;;;;;5055576;28;20116;-66
2021/11/12 00:28:06;;;;;;;49.83;23.48;;;4.50;99.90;;;;;;5073293;28;20171;-65
2021/11/12 00:38:11;;;;;;;44.40;21.23;;;4.80;99.90;;;;;;5073433;28;20036;-68
2021/11/12 00:46:08;;;;;;;49.85;22.25;;;4.90;99.90;;;;;;5073247;28;20448;-66
2021/11/12 00:48:39;;;;;;;;;;;5.00;99.90;;;;;;5074405;28;20035;-66
2021/11/12 00:51:11;;;;;;;42.55;21.75;;;5.00;99.90;;;;;;5073086;28;19944;-66
2021/11/12 00:53:56;;;;;;;41.88;20.98;;;5.00;99.90;;;;;;5072496;28;20430;-66
2021/11/12 00:56:25;;;;;;;38.78;20.27;;;4.90;99.90;;;;;;5073811;28;20021;-66
2021/11/12 00:58:53;;;;;;;46.38;21.65;;;5.00;99.90;;;;;;5054921;28;20028;-66
2021/11/12 01:01:19;;;;;;;44.35;21.92;;;5.00;99.90;;;;;;5055227;28;20478;-66
2021/11/12 01:03:47;;;;;;;42.22;21.60;;;5.00;99.90;;;;;;5073557;28;20025;-65
2021/11/12 01:06:13;;;;;;;43.20;21.40;;;4.90;99.90;;;;;;5072666;28;20051;-65
2021/11/12 01:08:39;;;;;;;48.63;23.23;;;4.90;99.90;;;;;;5073055;28;20140;-65
2021/11/12 01:11:05;;;;;;;37.95;20.80;;;4.90;99.90;;;;;;5054526;28;20028;-66
2021/11/12 01:13:32;;;;;;;39.80;20.30;;;5.00;99.90;;;;;;5055219;28;20029;-66
2021/11/12 01:15:58;;;;;;;39.13;19.50;;;4.90;99.90;;;;;;5072093;28;20028;-66
2021/11/12 01:18:25;;;;;;;40.17;20.50;;;4.90;99.90;;;;;;5073001;28;20039;-66
2021/11/12 01:20:51;;;;;;;39.47;19.73;;;4.90;99.90;;;;;;5072936;28;20090;-73
2021/11/12 01:23:18;;;;;;;42.63;22.58;;;4.90;99.90;;;;;;5055215;28;20032;-66
2021/11/12 01:25:43;;;;;;;35.42;20.35;;;5.00;99.90;;;;;;5072980;28;20028;-65
2021/11/12 01:28:09;;;;;;;40.20;20.42;;;4.90;99.90;;;;;;5072013;28;20382;-66
2021/11/12 01:30:35;;;;;;;38.55;21.10;;;4.90;99.90;;;;;;5054863;28;20119;-65
2021/11/12 01:33:02;;;;;;;39.03;21.52;;;4.80;99.90;;;;;;5072236;28;20078;-65
2021/11/12 01:35:27;;;;;;;41.33;20.30;;;4.80;99.90;;;;;;5072810;28;20034;-65
2021/11/12 01:37:54;;;;;;;37.97;19.95;;;4.90;99.90;;;;;;5072120;28;20111;-66
2021/11/12 01:40:26;;;;;;;32.72;17.30;;;4.90;99.90;;;;;;5072413;28;20113;-65
2021/11/12 01:43:15;;;;;;;33.88;17.77;;;4.90;99.90;;;;;;5072581;28;20029;-66
2021/11/12 01:45:53;;;;;;;33.85;15.60;;;4.90;99.90;;;;;;5072472;28;20354;-66
2021/11/12 01:48:30;;;;;;;27.35;15.52;;;4.90;99.90;;;;;;5072731;28;20033;-66
2021/11/12 01:53:34;;;;;;;27.92;14.27;;;4.80;99.90;;;;;;5072399;28;20052;-64
2021/11/12 01:56:47;;;;;;;25.17;12.90;;;4.80;99.90;;;;;;5071782;28;20073;-65
2021/11/12 02:01:26;;;;;;;21.95;12.23;;;4.90;99.90;;;;;;5072261;28;20036;-65
2021/11/12 02:03:53;;;;;;;21.02;11.20;;;4.80;99.90;;;;;;5053866;28;20047;-65
2021/11/12 02:06:23;;;;;;;18.42;10.55;;;4.90;99.90;;;;;;5071988;28;20157;-65
2021/11/12 02:08:49;;;;;;;16.70;10.45;;;4.90;99.90;;;;;;5053938;28;20037;-66
2021/11/12 02:11:16;;;;;;;19.85;11.93;;;4.80;99.90;;;;;;5053401;28;20028;-65
2021/11/12 02:13:43;;;;;;;20.83;11.98;;;4.80;99.90;;;;;;5071990;28;20024;-65
2021/11/12 02:16:13;;;;;;;24.80;13.35;;;4.80;99.90;;;;;;5049778;28;20049;-64
2021/11/12 02:18:42;;;;;;;26.95;13.55;;;4.80;99.90;;;;;;5050600;28;20063;-65
2021/11/12 02:23:38;;;;;;;23.52;13.90;;;4.90;99.90;;;;;;5051558;28;20064;-64
2021/11/12 02:26:07;;;;;;;27.30;13.45;;;4.90;99.90;;;;;;5051486;28;20029;-66
2021/11/12 02:28:35;;;;;;;26.27;14.00;;;4.90;99.90;;;;;;5051800;28;20029;-66
2021/11/12 02:31:02;;;;;;;23.35;13.00;;;4.90;99.90;;;;;;5051456;28;20029;-66
2021/11/12 02:33:28;;;;;;;27.33;15.20;;;4.80;99.90;;;;;;5051791;28;20025;-66
2021/11/12 02:36:10;;;;;;;31.42;14.77;;;4.80;99.90;;;;;;5049653;28;20055;-65
2021/11/12 02:38:39;;;;;;;22.23;12.75;;;4.90;99.90;;;;;;5052505;28;20458;-65
2021/11/12 02:41:06;;;;;;;21.55;12.25;;;4.80;99.90;;;;;;5052002;28;20398;-65
2021/11/12 02:43:34;;;;;;;24.00;13.07;;;4.90;99.90;;;;;;5050008;28;20323;-66
2021/11/12 02:46:05;;;;;;;23.10;12.93;;;4.90;99.90;;;;;;5050650;28;20064;-66
2021/11/12 02:48:34;;;;;;;21.10;11.20;;;4.80;99.90;;;;;;5051735;28;20033;-66
2021/11/12 02:51:01;;;;;;;24.85;11.50;;;4.90;99.90;;;;;;5050913;28;20033;-64
2021/11/12 02:53:26;;;;;;;23.38;12.82;;;4.60;99.90;;;;;;5051492;28;20493;-67
2021/11/12 02:55:53;;;;;;;22.67;12.07;;;4.40;99.90;;;;;;5051719;28;20055;-65
2021/11/12 02:58:20;;;;;;;17.25;10.27;;;4.50;99.90;;;;;;5050569;28;20032;-65
2021/11/12 03:00:47;;;;;;;23.42;12.25;;;4.50;99.90;;;;;;5051198;28;20035;-65
2021/11/12 03:03:13;;;;;;;22.17;10.18;;;4.60;99.90;;;;;;5049301;28;20041;-64
2021/11/12 03:05:39;;;;;;;17.88;10.25;;;4.60;99.90;;;;;;5051309;28;20122;-65
2021/11/12 03:08:05;;;;;;;20.05;10.77;;;4.60;99.90;;;;;;5049421;28;20486;-66
2021/11/12 03:10:31;;;;;;;20.08;10.07;;;4.70;99.90;;;;;;5049996;28;20474;-66
2021/11/12 03:12:56;;;;;;;18.67;10.45;;;4.70;99.90;;;;;;5051410;28;20025;-66
2021/11/12 03:15:22;;;;;;;19.40;9.85;;;4.70;99.90;;;;;;5050730;28;20465;-66
2021/11/12 03:17:52;;;;;;;20.10;11.35;;;4.70;99.90;;;;;;5073150;28;20135;-65
2021/11/12 03:20:18;;;;;;;18.42;9.82;;;4.70;99.90;;;;;;5074747;28;20361;-66
2021/11/12 03:22:51;;;;;;;23.20;11.25;;;4.80;99.90;;;;;;5057242;28;20489;-66
2021/11/12 03:31:11;;;;;;;19.45;11.48;;;4.70;99.90;;;;;;5075213;28;20033;-65
2021/11/12 04:00:47;;;;;;;22.73;11.68;;;4.70;99.90;;;;;;5074074;28;20054;-66
2021/11/12 04:06:13;;;;;;;18.42;10.25;;;4.60;99.90;;;;;;5074425;28;20060;-65
2021/11/12 04:22:10;;;;;;;17.58;10.52;;;4.40;99.90;;;;;;5073922;28;20024;-65
2021/11/12 05:13:52;;;;;;;23.00;12.50;;;4.50;99.90;;;;;;5072526;28;20331;-68
2021/11/12 05:51:29;;;;;;;22.48;12.55;;;4.40;99.90;;;;;;5071788;28;20128;-66
2021/11/12 05:56:41;;;;;;;22.25;12.20;;;4.40;99.90;;;;;;5072303;28;20078;-65
2021/11/12 05:59:08;;;;;;;21.48;12.27;;;4.30;99.90;;;;;;5054319;28;20111;-66
2021/11/12 06:01:34;;;;;;;21.80;11.95;;;4.40;99.90;;;;;;5053899;28;20100;-67
2021/11/12 06:04:01;;;;;;;25.63;12.38;;;4.40;99.90;;;;;;5054005;28;20405;-66
2021/11/12 06:06:27;;;;;;;27.17;12.90;;;4.40;99.90;;;;;;5071490;28;20115;-66
2021/11/12 06:08:53;;;;;;;23.40;12.07;;;4.30;99.90;;;;;;5072057;28;20123;-66
2021/11/12 06:11:19;;;;;;;22.27;12.13;;;4.30;99.90;;;;;;5071505;28;20060;-66
2021/11/12 06:13:44;;;;;;;23.63;12.32;;;4.40;99.90;;;;;;5071680;28;20465;-65
2021/11/12 06:16:10;;;;;;;19.88;12.07;;;4.40;99.90;;;;;;5052703;28;20045;-65
2021/11/12 06:18:36;;;;;;;30.50;12.57;;;4.30;99.90;;;;;;5071544;28;20028;-64
2021/11/12 06:21:02;;;;;;;25.63;13.63;;;4.40;99.90;;;;;;5053485;28;20374;-65
2021/11/12 06:23:29;;;;;;;23.17;12.95;;;4.40;99.90;;;;;;5071038;28;20032;-65
2021/11/12 06:25:55;;;;;;;24.23;12.18;;;4.40;99.90;;;;;;5071349;28;20480;-65
2021/11/12 06:28:21;;;;;;;30.25;14.15;;;4.40;99.90;;;;;;5053228;28;20032;-65
2021/11/12 06:30:48;;;;;;;25.85;14.73;;;4.30;99.90;;;;;;5053323;28;20036;-65
2021/11/12 06:33:14;;;;;;;32.67;13.90;;;4.10;99.90;;;;;;5053061;28;20116;-66
2021/11/12 06:35:40;;;;;;;26.27;14.32;;;4.00;99.90;;;;;;5070960;28;20441;-65
2021/11/12 06:38:06;;;;;;;30.88;14.50;;;4.10;99.90;;;;;;5053506;28;20029;-66
2021/11/12 06:40:32;;;;;;;29.88;14.73;;;4.20;99.90;;;;;;5070560;28;20035;-66
2021/11/12 06:43:07;;;;;;;23.73;13.25;;;4.20;99.90;;;;;;5071302;28;20112;-65
2021/11/12 06:51:05;;;;;;;25.73;15.05;;;4.20;99.90;;;;;;5069852;28;20086;-67
2021/11/12 06:53:31;;;;;;;35.58;17.55;;;4.20;99.90;;;;;;5070387;28;20036;-66
2021/11/12 06:56:00;;;;;;;30.52;18.35;;;4.30;99.90;;;;;;5071612;28;20550;-66
2021/11/12 06:58:27;;;;;;;35.03;16.83;;;4.30;99.90;;;;;;5070415;28;20108;-65
2021/11/12 07:00:52;;;;;;;28.73;14.70;;;4.30;99.90;;;;;;5070763;28;20119;-64
2021/11/12 07:03:19;;;;;;;32.65;17.13;;;4.20;99.90;;;;;;5070370;28;20071;-65
2021/11/12 07:05:45;;;;;;;31.73;17.73;;;4.30;99.90;;;;;;5053161;28;20116;-66
2021/11/12 07:08:11;;;;;;;44.30;17.60;;;4.30;99.90;;;;;;5053290;28;20036;-65
2021/11/12 07:10:38;;;;;;;32.05;17.45;;;4.30;99.90;;;;;;5070946;28;20033;-66
2021/11/12 07:13:05;;;;;;;34.80;16.60;;;4.30;99.90;;;;;;5071172;28;20075;-65
2021/11/12 07:15:31;;;;;;;30.27;16.15;;;4.20;99.90;;;;;;5070236;28;20028;-65
2021/11/12 07:17:56;;;;;;;32.28;17.45;;;4.30;99.90;;;;;;5052886;28;20148;-65
2021/11/12 07:20:22;;;;;;;35.70;18.27;;;4.30;99.90;;;;;;5070479;28;20032;-66
2021/11/12 07:22:48;;;;;;;30.55;17.35;;;4.30;99.90;;;;;;5070875;28;20032;-65
2021/11/12 07:25:14;;;;;;;43.22;18.58;;;4.30;99.90;;;;;;5070550;28;20459;-67
2021/11/12 07:27:40;;;;;;;41.20;17.75;;;4.40;99.90;;;;;;5053256;28;20381;-65
2021/11/12 07:30:09;;;;;;;35.88;18.70;;;4.50;99.90;;;;;;5071092;28;20016;-66
2021/11/12 07:32:35;;;;;;;44.97;19.63;;;4.40;99.90;;;;;;5052498;28;20035;-64
2021/11/12 07:35:01;;;;;;;37.83;19.15;;;4.40;99.90;;;;;;5052908;28;20024;-65
2021/11/12 07:37:29;;;;;;;31.42;17.17;;;4.20;99.90;;;;;;5052096;28;20164;-66
2021/11/12 07:39:57;;;;;;;31.48;18.38;;;4.30;99.90;;;;;;5071101;28;20127;-67
2021/11/12 07:42:35;;;;;;;30.58;16.73;;;4.30;99.90;;;;;;5070523;28;20127;-66
2021/11/12 07:47:27;;;;;;;44.60;17.65;;;4.30;99.90;;;;;;5069657;28;20449;-67
2021/11/12 07:49:57;;;;;;;37.83;16.70;;;4.10;99.90;;;;;;5052593;28;20033;-65
2021/11/12 07:52:27;;;;;;;36.40;14.95;;;3.90;99.90;;;;;;5070130;28;20029;-65
2021/11/12 07:54:53;;;;;;;29.13;14.82;;;3.90;99.90;;;;;;5052659;28;20363;-65
2021/11/12 07:57:19;;;;;;;45.80;15.65;;;3.80;99.90;;;;;;5052138;28;20024;-66
2021/11/12 07:59:45;;;;;;;27.25;13.85;;;3.70;99.90;;;;;;5052607;28;20110;-66
2021/11/12 08:02:14;;;;;;;41.40;15.88;;;3.60;99.90;;;;;;5054091;28;20036;-65
2021/11/12 08:04:40;;;;;;;52.30;15.23;;;3.70;99.90;;;;;;5069922;28;20028;-66
2021/11/12 08:07:05;;;;;;;39.22;15.43;;;3.50;99.90;;;;;;5094267;28;20055;-67
2021/11/12 08:09:50;;;;;;;30.63;13.82;;;3.60;99.90;;;;;;5072773;28;20443;-65
2021/11/12 08:12:31;;;;;;;53.97;15.95;;;4.10;99.90;;;;;;5094310;28;20100;-73
2021/11/12 08:30:47;;;;;;;34.60;14.77;;;3.60;99.90;;;;;;5094295;28;20023;-66
2021/11/12 08:41:05;;;;;;;28.58;14.13;;;3.40;99.90;;;;;;5073618;28;20131;-67
2021/11/12 08:46:21;;;;;;;35.22;14.30;;;3.50;99.90;;;;;;5073496;28;20120;-65
2021/11/12 08:49:02;;;;;;;33.70;13.35;;;3.20;99.90;;;;;;5073660;28;20035;-66
2021/11/12 08:51:34;;;;;;;35.90;14.13;;;3.20;99.90;;;;;;5072777;28;20025;-66
2021/11/12 08:54:01;;;;;;;28.90;13.80;;;3.10;99.90;;;;;;5055344;28;20052;-66
2021/11/12 08:56:28;;;;;;;25.25;13.77;;;3.10;99.90;;;;;;5054744;28;20124;-65
2021/11/12 08:58:54;;;;;;;30.40;13.50;;;3.30;99.90;;;;;;5056018;28;20027;-67
2021/11/12 09:01:20;;;;;;;23.83;13.00;;;3.30;99.90;;;;;;5072784;28;20107;-66
2021/11/12 09:03:47;;;;;;;23.85;13.07;;;3.20;99.90;;;;;;5073732;28;20032;-66
2021/11/12 09:06:13;;;;;;;24.42;13.95;;;3.30;99.90;;;;;;5073792;28;20388;-65
2021/11/12 09:08:40;;;;;;;22.75;13.57;;;3.10;99.90;;;;;;5087681;28;20645;-66
2021/11/12 09:11:07;;;;;;;24.13;12.88;;;3.20;99.90;;;;;;5094140;28;20465;-65
2021/11/12 09:14:21;;;;;;;29.75;14.40;;;3.30;99.90;;;;;;5092215;28;20453;-65
2021/11/12 09:16:29;;;;;;;27.02;13.60;;;3.30;99.90;;;;;;5064649;28;20040;-71
2021/11/12 09:18:55;;;;;;;24.35;12.68;;;3.10;99.90;;;;;;5084125;28;20478;-65
2021/11/12 09:21:21;;;;;;;27.20;14.02;;;3.20;99.90;;;;;;5082718;28;20047;-67
2021/11/12 09:23:46;;;;;;;25.10;13.52;;;3.10;99.90;;;;;;5057133;28;20024;-66
2021/11/12 09:26:13;;;;;;;28.80;13.40;;;3.20;99.90;;;;;;5079445;28;20025;-67
2021/11/12 09:28:38;;;;;;;29.80;14.10;;;3.30;99.90;;;;;;5072250;28;20028;-65
2021/11/12 09:31:08;;;;;;;25.25;12.75;;;3.20;99.90;;;;;;5066521;28;20406;-65
2021/11/12 09:33:34;;;;;;;27.73;14.07;;;3.20;99.90;;;;;;5056953;28;20024;-66
2021/11/12 09:36:01;;;;;;;22.92;12.43;;;3.30;99.90;;;;;;5054768;28;20470;-66
2021/11/12 09:38:27;;;;;;;21.48;11.90;;;3.40;99.90;;;;;;5054117;28;20064;-65
2021/11/12 09:40:54;;;;;;;20.77;13.32;;;3.40;99.90;;;;;;5054513;28;20096;-66
2021/11/12 09:43:22;;;;;;;24.65;12.15;;;3.40;99.90;;;;;;5054381;28;20028;-65
2021/11/12 09:45:49;;;;;;;24.92;13.70;;;3.30;99.90;;;;;;5072379;28;20036;-66
2021/11/12 09:48:14;;;;;;;25.10;13.18;;;3.10;99.90;;;;;;5073024;28;20029;-65
2021/11/12 09:50:40;;;;;;;22.73;13.45;;;3.40;99.90;;;;;;5091413;28;20028;-66
2021/11/12 09:53:06;;;;;;;23.52;13.18;;;3.50;99.90;;;;;;5079961;28;20480;-65
2021/11/12 09:55:32;;;;;;;27.40;15.50;;;3.40;99.90;;;;;;5055042;28;20411;-67
2021/11/12 09:58:01;;;;;;;24.65;14.32;;;3.40;99.90;;;;;;5065104;28;20031;-67
2021/11/12 10:00:28;;;;;;;19.55;12.85;;;3.40;99.90;;;;;;5065010;28;20032;-66
2021/11/12 10:02:54;;;;;;;24.13;14.23;;;3.40;99.90;;;;;;5083878;28;20032;-60
2021/11/12 10:05:31;;;;;;;29.30;15.48;;;3.60;99.90;;;;;;5070259;28;20024;-64
2021/11/12 10:07:58;;;;;;;22.80;13.82;;;4.50;99.90;;;;;;5084214;28;20043;-67
2021/11/12 10:10:24;;;;;;;24.75;13.63;;;4.40;99.90;;;;;;5082515;28;20032;-72
2021/11/12 10:12:55;;;;;;;23.85;15.35;;;3.80;99.90;;;;;;5082518;28;20064;-65
2021/11/12 10:15:30;;;;;;;21.50;13.48;;;3.70;99.90;;;;;;5081057;28;20020;-66
2021/11/12 10:18:16;;;;;;;24.60;14.38;;;3.50;99.90;;;;;;5064289;28;20377;-65
2021/11/12 10:20:56;;;;;;;26.38;14.90;;;3.50;99.90;;;;;;5076539;28;20135;-66
2021/11/12 10:23:22;;;;;;;27.35;14.45;;;3.60;99.90;;;;;;5056038;28;20031;-66
2021/11/12 10:26:02;;;;;;;26.73;16.13;;;3.80;99.90;;;;;;5069276;28;20359;-67
2021/11/12 10:28:42;;;;;;;24.30;13.13;;;3.90;99.90;;;;;;5072931;28;20043;-64
2021/11/12 10:31:17;;;;;;;24.65;13.77;;;3.70;99.90;;;;;;5076630;28;20042;-65
2021/11/12 10:33:48;;;;;;;27.27;14.57;;;3.70;99.90;;;;;;5054309;28;20208;-64
2021/11/12 10:36:15;;;;;;;24.98;12.75;;;3.80;99.90;;;;;;5081750;28;20060;-65
2021/11/12 10:38:42;;;;;;;28.27;14.63;;;3.90;99.90;;;;;;5068137;28;20359;-67
2021/11/12 10:41:21;;;;;;;26.30;13.90;;;3.90;99.90;;;;;;5086690;28;20035;-66
2021/11/12 10:43:47;;;;;;;25.73;15.13;;;3.90;99.90;;;;;;5059252;28;20078;-65
2021/11/12 10:46:14;;;;;;;25.88;14.35;;;4.00;99.90;;;;;;5078462;28;20040;-71
2021/11/12 10:48:40;;;;;;;28.70;15.32;;;4.00;99.90;;;;;;5068064;28;20043;-66
2021/11/12 10:51:22;;;;;;;28.40;15.65;;;4.10;99.90;;;;;;5071249;28;20021;-67
2021/11/12 10:53:51;;;;;;;27.63;14.70;;;4.10;99.90;;;;;;5072783;28;20051;-65
2021/11/12 10:56:18;;;;;;;40.42;16.73;;;4.20;99.90;;;;;;5070576;28;20029;-67
2021/11/12 10:59:04;;;;;;;29.52;15.75;;;9.00;99.90;;;;;;5065184;28;20024;-67
2021/11/12 11:01:37;;;;;;;34.95;20.17;;;9.80;99.90;;;;;;5066449;28;20078;-66
2021/11/12 11:04:20;;;;;;;25.27;14.43;;;7.40;99.90;;;;;;5072543;28;20027;-66
2021/11/12 11:06:47;;;;;;;30.00;15.48;;;5.60;99.90;;;;;;5072176;28;20047;-67
2021/11/12 11:09:13;;;;;;;26.25;15.52;;;5.20;99.90;;;;;;5081109;28;20024;-67
2021/11/12 11:11:42;;;;;;;29.35;16.52;;;4.90;99.90;;;;;;5085134;28;20029;-66
2021/11/12 11:14:31;;;;;;;30.42;17.80;;;;;;;;;;5070833;28;20150;-66
2021/11/12 11:17:25;;;;;;;33.47;18.77;;;4.10;99.90;;;;;;5070371;28;20093;-66
2021/11/12 11:19:52;;;;;;;25.15;15.25;;;4.10;99.90;;;;;;5052546;28;20485;-66
2021/11/12 11:22:18;;;;;;;29.35;17.88;;;3.60;99.90;;;;;;5051953;28;20494;-67
2021/11/12 11:24:48;;;;;;;37.33;17.88;;;3.60;99.90;;;;;;5051878;28;20032;-67
2021/11/12 11:27:14;;;;;;;33.95;16.02;;;3.60;99.90;;;;;;5070790;28;20370;-67
2021/11/12 11:29:40;;;;;;;29.20;16.10;;;;;;;;;;5069915;28;20024;-68
2021/11/12 11:32:07;;;;;;;31.73;17.65;;;3.60;99.90;;;;;;5070698;28;20542;-66
2021/11/12 11:34:34;;;;;;;29.63;16.85;;;3.70;99.90;;;;;;5069670;28;20020;-66
2021/11/12 11:37:04;;;;;;;31.33;17.05;;;3.80;99.90;;;;;;5053015;28;20024;-67
2021/11/12 11:39:31;;;;;;;34.38;18.63;;;3.90;99.90;;;;;;5073470;28;20029;-67
2021/11/12 11:41:58;;;;;;;35.40;19.42;;;3.80;99.90;;;;;;5073840;28;20032;-66
2021/11/12 11:44:24;;;;;;;34.67;17.10;;;3.60;99.90;;;;;;5073744;28;20032;-66
2021/11/12 11:46:51;;;;;;;34.28;18.67;;;3.60;99.90;;;;;;5073411;28;20130;-66
2021/11/12 11:49:23;;;;;;;31.23;17.42;;;3.60;99.90;;;;;;5055969;28;20033;-66
2021/11/12 11:51:54;;;;;;;29.30;17.15;;;3.70;99.90;;;;;;5073230;28;20044;-66
2021/11/12 11:54:21;;;;;;;27.70;16.13;;;3.70;99.90;;;;;;5055700;28;20041;-67
2021/11/12 11:56:56;;;;;;;31.80;16.25;;;3.70;99.90;;;;;;5055246;28;20259;-67
2021/11/12 11:59:29;;;;;;;28.52;15.82;;;4.00;99.90;;;;;;5073536;28;20058;-66
2021/11/12 12:02:01;;;;;;;28.08;16.23;;;3.90;99.90;;;;;;5062055;28;20032;-67
2021/11/12 12:04:36;;;;;;;31.95;18.20;;;3.90;99.90;;;;;;5093942;28;20473;-67
2021/11/12 12:07:02;;;;;;;31.30;16.08;;;3.50;99.90;;;;;;5075586;28;20024;-66
2021/11/12 12:09:47;;;;;;;33.17;16.08;;;3.60;99.90;;;;;;5075417;28;20024;-66
2021/11/12 12:12:34;;;;;;;32.78;15.10;;;3.50;99.90;;;;;;5093640;28;20028;-66
2021/11/12 12:15:05;;;;;;;33.63;15.13;;;3.50;99.90;;;;;;5093672;28;20158;-67
2021/11/12 12:17:37;;;;;;;26.65;15.32;;;3.50;99.90;;;;;;5092200;28;20139;-67
2021/11/12 13:25:43;;;;;;;39.95;17.23;;;3.90;99.90;;;;;;5085679;28;20396;-67
2021/11/12 13:28:19;;;;;;;36.92;17.98;;;3.70;99.90;;;;;;5061437;28;20064;-66
2021/11/12 13:30:47;;;;;;;39.45;16.55;;;3.70;99.90;;;;;;5091035;28;20462;-66
2021/11/12 13:33:31;;;;;;;35.78;16.52;;;3.60;99.90;;;;;;5073498;28;20028;-65
2021/11/12 13:36:01;;;;;;;35.20;17.17;;;3.50;99.90;;;;;;5072393;28;20521;-67
2021/11/12 13:38:38;;;;;;;34.55;18.20;;;3.60;99.90;;;;;;5090695;28;20024;-65
2021/11/12 13:41:07;;;;;;;35.38;17.15;;;3.60;99.90;;;;;;5073167;28;20453;-67
2021/11/12 13:43:37;;;;;;;32.88;17.20;;;3.80;99.90;;;;;;5073262;28;20595;-67
2021/11/12 13:46:03;;;;;;;32.85;17.38;;;3.30;99.90;;;;;;5065421;28;20035;-66
2021/11/12 13:48:29;;;;;;;33.45;18.27;;;3.20;99.90;;;;;;5067257;28;20081;-65
2021/11/12 13:51:02;;;;;;;36.83;19.38;;;3.30;99.90;;;;;;5072933;28;20122;-66
2021/11/12 13:53:32;;;;;;;35.88;18.38;;;3.30;99.90;;;;;;5089998;28;20035;-65
2021/11/12 13:56:00;;;;;;;36.33;18.52;;;3.40;99.90;;;;;;5091351;28;20036;-66
2021/11/12 13:58:27;;;;;;;36.75;19.13;;;3.20;99.90;;;;;;5091923;28;20020;-66
2021/11/12 14:00:55;;;;;;;36.22;18.08;;;3.30;99.90;;;;;;5089827;28;20031;-66
2021/11/12 14:03:41;;;;;;;34.75;18.58;;;3.30;99.90;;;;;;5071392;28;20032;-67
2021/11/12 14:06:11;;;;;;;41.92;19.88;;;3.40;99.90;;;;;;5053330;28;20039;-65
2021/11/12 14:08:42;;;;;;;33.55;18.70;;;3.30;99.90;;;;;;5052426;28;20032;-67
2021/11/12 14:11:34;;;;;;;35.58;19.27;;;3.20;99.90;;;;;;5053365;28;20025;-66
2021/11/12 14:14:13;;;;;;;44.78;21.13;;;3.40;99.90;;;;;;5067280;28;20040;-67
2021/11/12 14:19:55;;;;;;;41.20;21.17;;;3.30;99.90;;;;;;5071510;28;20028;-65
2021/11/12 14:22:11;;;;;;;37.47;20.30;;;3.30;99.90;;;;;;5079990;28;20440;-66
2021/11/12 14:30:17;;;;;;;43.25;21.42;;;3.30;99.90;;;;;;5090458;28;20063;-66
2021/11/12 14:33:02;;;;;;;41.80;21.33;;;3.10;99.90;;;;;;5064233;28;20020;-67
2021/11/12 14:38:35;;;;;;;41.53;21.58;;;3.30;99.90;;;;;;5082296;28;20131;-67
2021/11/12 14:42:21;;;;;;;54.83;21.80;;;3.00;99.90;;;;;;5067638;28;20102;-65
2021/11/12 14:46:57;;;;;;;39.35;20.02;;;3.10;99.90;;;;;;5083543;28;20127;-69
2021/11/12 14:52:16;;;;;;;47.03;21.45;;;3.10;99.90;;;;;;5080147;28;20120;-67
2021/11/12 14:54:52;;;;;;;49.53;21.98;;;3.30;99.90;;;;;;5068942;28;20021;-67
2021/11/12 14:59:47;;;;;;;43.65;20.83;;;3.10;99.90;;;;;;5072418;28;20358;-70
2021/11/12 15:02:13;;;;;;;47.63;21.27;;;3.10;99.90;;;;;;5058589;28;20033;-67
2021/11/12 15:04:40;;;;;;;49.72;22.08;;;3.00;99.90;;;;;;5064435;28;20029;-82
2021/11/12 15:07:07;;;;;;;45.58;21.98;;;3.00;99.90;;;;;;5091194;28;20046;-67
2021/11/12 15:09:35;;;;;;;48.00;22.45;;;2.90;99.90;;;;;;5083428;28;20020;-67
2021/11/12 15:12:05;;;;;;;47.17;21.65;;;3.10;99.90;;;;;;5052785;28;20422;-65
2021/11/12 15:14:43;;;;;;;48.60;21.55;;;3.00;99.90;;;;;;5070186;28;20031;-66
2021/11/12 15:17:11;;;;;;;45.45;21.48;;;3.10;99.90;;;;;;5073450;28;20060;-66
2021/11/12 15:19:39;;;;;;;46.08;21.42;;;3.00;99.90;;;;;;5073278;28;20454;-67
2021/11/12 15:25:15;;;;;;;43.38;21.67;;;3.20;99.90;;;;;;5074174;28;20039;-66
2021/11/12 15:32:55;;;;;;;;;;;3.30;99.90;;;;;;5060120;28;20090;-66
2021/11/12 15:35:24;;;;;;;47.10;21.48;;;3.30;99.90;;;;;;5055749;28;19911;-66
2021/11/12 15:40:32;;;;;;;44.65;21.75;;;3.20;99.90;;;;;;5054232;28;20109;-66
2021/11/12 15:43:15;;;;;;;55.58;23.67;;;3.10;99.90;;;;;;5052978;28;20041;-67
2021/11/12 15:48:14;;;;;;;60.53;23.52;;;3.20;99.90;;;;;;5053107;28;20032;-67
2021/11/12 16:09:27;;;;;;;54.53;24.42;;;3.00;99.90;;;;;;5053321;28;20446;-66
2021/11/12 16:25:13;;;;;;;84.45;26.73;;;2.70;99.90;;;;;;5080780;28;20115;-65
2021/11/12 16:27:44;;;;;;;75.38;29.05;;;2.80;99.90;;;;;;5083797;28;20024;-67
2021/11/12 16:30:12;;;;;;;75.05;26.98;;;2.80;99.90;;;;;;5080329;28;20035;-66
2021/11/12 16:32:42;;;;;;;67.80;27.42;;;2.90;99.90;;;;;;5076040;28;20082;-68
2021/11/12 16:35:11;;;;;;;71.30;27.10;;;3.00;99.90;;;;;;5085006;28;20115;-66
2021/11/12 16:37:38;;;;;;;62.88;25.48;;;3.00;99.90;;;;;;5065130;28;20025;-66
2021/11/12 16:47:57;;;;;;;63.15;26.08;;;3.20;99.90;;;;;;5082971;28;20028;-65
2021/11/12 16:53:02;;;;;;;69.78;27.08;;;3.10;99.90;;;;;;5081229;28;20020;-67
2021/11/12 17:10:44;;;;;;;73.00;27.67;;;3.10;99.90;;;;;;5085311;28;20131;-65
2021/11/12 17:18:41;;;;;;;77.90;27.67;;;3.10;99.90;;;;;;5078067;28;20035;-66
2021/11/12 17:21:25;;;;;;;90.28;36.13;;;3.10;99.90;;;;;;5081793;28;20028;-66
2021/11/12 17:47:49;;;;;;;77.38;29.02;;;3.20;99.90;;;;;;5071022;28;20556;-69
2021/11/12 18:01:53;;;;;;;78.55;26.17;;;3.10;99.90;;;;;;5084116;28;20393;-67
2021/11/12 18:07:16;;;;;;;66.65;24.25;;;3.20;99.90;;;;;;5070020;28;20161;-69
2021/11/12 21:46:29;;;;;;;47.38;21.85;;;3.20;99.90;;;;;;5090400;28;20051;-66
2021/11/12 21:48:59;;;;;;;48.95;21.25;;;3.20;99.90;;;;;;5092558;28;20069;-66
2021/11/12 21:51:31;;;;;;;48.75;21.88;;;3.10;99.90;;;;;;5092423;28;20058;-67
2021/11/12 21:54:01;;;;;;;59.38;23.00;;;3.00;99.90;;;;;;5093474;28;20075;-66
2021/11/12 21:56:27;;;;;;;49.15;21.95;;;2.80;99.90;;;;;;5073735;28;20020;-67
2021/11/12 21:58:53;;;;;;;53.42;22.88;;;2.80;99.90;;;;;;5092409;28;20032;-67
2021/11/12 22:01:22;;;;;;;63.83;25.90;;;2.90;99.90;;;;;;5091751;28;20031;-67
2021/11/12 22:03:49;;;;;;;48.65;21.08;;;2.80;99.90;;;;;;5092379;28;20115;-67
2021/11/12 22:06:16;;;;;;;47.47;19.73;;;2.80;99.90;;;;;;5086218;28;20039;-67
2021/11/12 22:08:42;;;;;;;49.70;23.52;;;2.80;99.90;;;;;;5080881;28;20024;-67
2021/11/12 22:11:09;;;;;;;59.22;23.25;;;2.80;99.90;;;;;;5071636;28;20105;-68
2021/11/12 22:13:37;;;;;;;45.88;20.30;;;2.90;99.90;;;;;;5071779;28;20024;-67
2021/11/12 22:16:05;;;;;;;47.30;20.67;;;2.90;99.90;;;;;;5071416;28;20096;-66
2021/11/12 22:18:30;;;;;;;49.15;21.48;;;2.90;99.90;;;;;;5053798;28;20119;-67
2021/11/12 22:20:56;;;;;;;43.13;20.13;;;2.90;99.90;;;;;;5053547;28;20112;-67
2021/11/12 22:23:25;;;;;;;46.38;20.00;;;3.00;99.90;;;;;;5053238;28;20063;-67
2021/11/12 22:25:51;;;;;;;41.15;18.42;;;3.00;99.90;;;;;;5068476;28;20141;-66
2021/11/12 22:28:17;;;;;;;40.80;19.35;;;3.10;99.90;;;;;;5071382;28;20032;-66
2021/11/12 22:30:44;;;;;;;47.53;19.65;;;3.10;99.90;;;;;;5074296;28;20385;-70
2021/11/12 22:33:10;;;;;;;48.78;18.23;;;3.20;99.90;;;;;;5069783;28;20097;-67
2021/11/12 22:35:36;;;;;;;38.90;19.17;;;3.20;99.90;;;;;;5072010;28;20029;-68
2021/11/12 22:38:03;;;;;;;42.13;18.90;;;3.20;99.90;;;;;;5069369;28;20406;-66
2021/11/12 22:40:30;;;;;;;47.50;20.73;;;3.10;99.90;;;;;;5070312;28;20021;-68
2021/11/12 22:42:55;;;;;;;45.47;20.08;;;3.00;99.90;;;;;;5071139;28;20029;-66
2021/11/12 22:45:21;;;;;;;38.58;18.27;;;3.00;99.90;;;;;;5070425;28;20454;-66
2021/11/12 22:47:47;;;;;;;49.28;17.88;;;3.00;99.90;;;;;;5086317;28;20032;-66
2021/11/12 22:50:19;;;;;;;37.80;19.30;;;3.10;99.90;;;;;;5085455;28;20450;-68
2021/11/12 22:52:45;;;;;;;44.70;18.58;;;3.20;99.90;;;;;;5071218;28;20458;-67
2021/11/12 22:55:11;;;;;;;48.08;18.90;;;3.20;99.90;;;;;;5069976;28;20059;-67
2021/11/12 22:57:37;;;;;;;43.38;20.20;;;3.20;99.90;;;;;;5052506;28;20111;-67
2021/11/12 23:00:20;;;;;;;43.80;19.70;;;3.20;99.90;;;;;;5053393;28;20120;-69
2021/11/12 23:02:45;;;;;;;41.30;18.05;;;3.20;99.90;;;;;;5070507;28;20413;-67
2021/11/12 23:05:11;;;;;;;42.63;18.55;;;3.10;99.90;;;;;;5069801;28;20028;-67
2021/11/12 23:07:39;;;;;;;45.00;20.00;;;3.10;99.90;;;;;;5070359;28;20123;-66
2021/11/12 23:10:05;;;;;;;52.50;19.67;;;3.10;99.90;;;;;;5052932;28;20540;-67